createdAt,value
2022-08-07T00:00:50.892Z,11.08
2022-08-07T00:02:41.467Z,11.05
2022-08-07T00:02:50.861Z,11.07
2022-08-07T00:03:49.853Z,11.08
2022-08-07T00:04:49.948Z,11.05
2022-08-07T00:05:49.837Z,10.93
2022-08-07T00:06:52.190Z,10.92
2022-08-07T00:07:50.665Z,10.89
2022-08-07T00:08:50.809Z,10.90
2022-08-07T00:09:59.216Z,10.86
2022-08-07T00:10:57.589Z,10.83
2022-08-07T00:11:55.442Z,10.93
2022-08-07T00:13:00.776Z,10.77
2022-08-07T00:13:50.762Z,10.82
2022-08-07T00:14:49.793Z,10.85
2022-08-07T00:15:50.946Z,10.87
2022-08-07T00:16:49.740Z,10.85
2022-08-07T00:17:49.730Z,10.87
2022-08-07T00:18:49.725Z,10.92
2022-08-07T00:20:01.568Z,10.83
2022-08-07T00:20:50.748Z,10.74
2022-08-07T00:21:56.396Z,10.77
2022-08-07T00:22:51.568Z,10.68
2022-08-07T00:23:49.686Z,10.68
2022-08-07T00:24:50.689Z,10.77
2022-08-07T00:25:59.062Z,10.67
2022-08-07T00:27:06.015Z,10.64
2022-08-07T00:27:53.154Z,10.70
2022-08-07T00:28:56.739Z,10.56
2022-08-07T00:29:50.633Z,10.64
2022-08-07T00:30:49.690Z,10.56
2022-08-07T00:31:51.340Z,10.56
2022-08-07T00:32:49.730Z,10.56
2022-08-07T00:33:49.605Z,10.49
2022-08-07T00:34:50.710Z,10.46
2022-08-07T00:35:49.886Z,10.49
2022-08-07T00:36:49.585Z,10.48
2022-08-07T00:37:49.562Z,10.46
2022-08-07T00:38:50.414Z,10.54
2022-08-07T00:39:54.610Z,10.48
2022-08-07T00:40:50.581Z,10.59
2022-08-07T00:41:53.207Z,10.46
2022-08-07T00:42:50.343Z,10.43
2022-08-07T00:43:59.298Z,10.38
2022-08-07T00:44:50.524Z,10.45
2022-08-07T00:45:49.534Z,10.31
2022-08-07T00:46:49.485Z,10.38
2022-08-07T00:48:08.718Z,10.49
2022-08-07T00:48:51.819Z,10.52
2022-08-07T00:50:20.157Z,10.41
2022-08-07T00:50:51.705Z,10.49
2022-08-07T00:51:57.178Z,10.49
2022-08-07T00:52:50.446Z,10.43
2022-08-07T00:53:50.458Z,10.37
2022-08-07T00:54:53.984Z,10.27
2022-08-07T00:56:02.313Z,10.20
2022-08-07T00:56:50.411Z,10.35
2022-08-07T00:57:55.907Z,10.37
2022-08-07T00:58:50.402Z,10.34
2022-08-07T00:59:49.386Z,10.23
2022-08-07T01:00:53.907Z,10.18
2022-08-07T01:01:49.435Z,10.27
2022-08-07T01:02:50.361Z,10.15
2022-08-07T01:03:56.206Z,10.20
2022-08-07T01:04:50.337Z,10.22
2022-08-07T01:05:53.532Z,10.23
2022-08-07T01:06:49.329Z,10.26
2022-08-07T01:07:49.311Z,10.16
2022-08-07T01:08:51.429Z,10.12
2022-08-07T01:10:05.668Z,10.06
2022-08-07T01:10:56.394Z,10.06
2022-08-07T01:12:09.982Z,10.06
2022-08-07T01:12:53.764Z,10.04
2022-08-07T01:13:56.016Z,10.04
2022-08-07T01:14:50.282Z,10.08
2022-08-07T01:16:01.016Z,10.01
2022-08-07T01:16:50.239Z,9.98
2022-08-07T01:17:49.291Z,9.98
2022-08-07T01:18:49.235Z,10.01
2022-08-07T01:19:52.414Z,9.98
2022-08-07T01:20:57.559Z,9.97
2022-08-07T01:21:50.221Z,9.85
2022-08-07T01:23:08.990Z,9.93
2022-08-07T01:23:50.176Z,9.91
2022-08-07T01:24:49.164Z,9.82
2022-08-07T01:25:55.626Z,9.85
2022-08-07T01:26:52.059Z,9.88
2022-08-07T01:27:51.385Z,9.93
2022-08-07T01:28:49.143Z,9.86
2022-08-07T01:29:50.581Z,9.80
2022-08-07T01:30:49.123Z,9.82
2022-08-07T01:31:49.146Z,9.86
2022-08-07T01:32:49.168Z,9.90
2022-08-07T01:33:55.105Z,9.86
2022-08-07T01:34:50.091Z,9.86
2022-08-07T01:35:54.350Z,9.80
2022-08-07T01:36:52.577Z,9.90
2022-08-07T01:37:50.055Z,9.88
2022-08-07T01:38:49.081Z,9.79
2022-08-07T01:39:49.081Z,9.86
2022-08-07T01:40:49.028Z,9.86
2022-08-07T01:42:07.304Z,9.85
2022-08-07T01:42:57.554Z,9.85
2022-08-07T01:43:50.010Z,9.80
2022-08-07T01:44:48.997Z,9.75
2022-08-07T01:45:48.990Z,9.79
2022-08-07T01:46:50.021Z,9.77
2022-08-07T01:48:18.365Z,9.73
2022-08-07T01:48:49.958Z,9.70
2022-08-07T01:49:48.952Z,9.69
2022-08-07T01:50:48.948Z,9.67
2022-08-07T01:52:03.893Z,9.77
2022-08-07T01:52:54.354Z,9.69
2022-08-07T01:54:11.881Z,9.73
2022-08-07T01:54:49.924Z,9.73
2022-08-07T01:55:48.912Z,9.70
2022-08-07T01:56:49.466Z,9.70
2022-08-07T01:58:06.743Z,9.69
2022-08-07T01:58:49.896Z,9.65
2022-08-07T01:59:48.878Z,9.59
2022-08-07T02:00:49.930Z,9.67
2022-08-07T02:01:59.875Z,9.62
2022-08-07T02:03:18.991Z,9.67
2022-08-07T02:03:50.950Z,9.65
2022-08-07T02:04:56.209Z,9.59
2022-08-07T02:06:00.072Z,9.69
2022-08-07T02:06:50.857Z,9.62
2022-08-07T02:07:51.339Z,9.55
2022-08-07T02:08:48.818Z,9.65
2022-08-07T02:09:53.099Z,9.54
2022-08-07T02:10:55.384Z,9.52
2022-08-07T02:12:02.975Z,9.49
2022-08-07T02:12:50.273Z,9.43
2022-08-07T02:14:00.765Z,9.59
2022-08-07T02:14:49.762Z,9.52
2022-08-07T02:15:48.753Z,9.73
2022-08-07T02:16:48.767Z,9.75
2022-08-07T02:17:49.863Z,9.69
2022-08-07T02:18:48.734Z,9.72
2022-08-07T02:20:03.990Z,9.69
2022-08-07T02:20:55.777Z,9.62
2022-08-07T02:21:56.347Z,9.75
2022-08-07T02:22:54.901Z,9.64
2022-08-07T02:23:49.699Z,9.80
2022-08-07T02:24:48.690Z,9.80
2022-08-07T02:26:31.202Z,9.67
2022-08-07T02:26:49.683Z,9.67
2022-08-07T02:27:51.232Z,9.65
2022-08-07T02:28:48.640Z,9.69
2022-08-07T02:29:54.155Z,9.64
2022-08-07T02:30:49.610Z,9.59
2022-08-07T02:31:48.634Z,9.61
2022-08-07T02:33:03.909Z,9.49
2022-08-07T02:34:04.142Z,9.61
2022-08-07T02:34:51.343Z,9.47
2022-08-07T02:36:28.478Z,9.55
2022-08-07T02:36:49.595Z,9.64
2022-08-07T02:37:48.564Z,9.57
2022-08-07T02:38:50.928Z,9.55
2022-08-07T02:40:11.767Z,9.55
2022-08-07T02:40:53.849Z,9.44
2022-08-07T02:41:54.258Z,9.51
2022-08-07T02:42:49.515Z,9.42
2022-08-07T02:43:49.082Z,9.44
2022-08-07T02:44:48.957Z,9.47
2022-08-07T02:45:58.165Z,9.37
2022-08-07T02:46:52.573Z,9.33
2022-08-07T02:47:49.102Z,9.40
2022-08-07T02:48:55.097Z,9.34
2022-08-07T02:49:58.840Z,9.40
2022-08-07T02:50:49.443Z,9.29
2022-08-07T02:51:51.852Z,9.32
2022-08-07T02:52:48.862Z,9.28
2022-08-07T02:53:48.425Z,9.26
2022-08-07T02:54:48.414Z,9.19
2022-08-07T02:56:04.025Z,9.25
2022-08-07T02:56:49.435Z,9.26
2022-08-07T02:57:48.395Z,9.22
2022-08-07T02:58:48.398Z,9.19
2022-08-07T02:59:54.795Z,9.19
2022-08-07T03:00:49.395Z,9.14
2022-08-07T03:01:52.170Z,9.15
2022-08-07T03:02:54.534Z,9.08
2022-08-07T03:03:50.892Z,9.11
2022-08-07T03:04:48.337Z,9.08
2022-08-07T03:05:48.330Z,9.15
2022-08-07T03:06:48.521Z,9.02
2022-08-07T03:08:07.812Z,9.15
2022-08-07T03:08:49.294Z,9.16
2022-08-07T03:09:51.983Z,9.15
2022-08-07T03:10:49.279Z,9.15
2022-08-07T03:11:52.206Z,9.08
2022-08-07T03:12:49.258Z,9.11
2022-08-07T03:13:49.903Z,9.14
2022-08-07T03:14:48.520Z,9.10
2022-08-07T03:15:58.248Z,8.99
2022-08-07T03:16:49.265Z,8.91
2022-08-07T03:17:53.041Z,8.93
2022-08-07T03:18:49.224Z,9.03
2022-08-07T03:19:52.165Z,8.99
2022-08-07T03:20:49.207Z,8.90
2022-08-07T03:21:50.730Z,8.93
2022-08-07T03:22:50.303Z,8.87
2022-08-07T03:24:19.600Z,8.98
2022-08-07T03:24:49.165Z,8.98
2022-08-07T03:25:58.155Z,8.91
2022-08-07T03:26:54.620Z,8.96
2022-08-07T03:27:59.235Z,8.91
2022-08-07T03:28:49.401Z,9.00
2022-08-07T03:29:50.457Z,8.84
2022-08-07T03:30:48.108Z,8.87
2022-08-07T03:31:49.783Z,8.90
2022-08-07T03:32:57.076Z,9.00
2022-08-07T03:33:49.079Z,8.88
2022-08-07T03:35:00.907Z,8.98
2022-08-07T03:35:50.379Z,8.93
2022-08-07T03:36:48.098Z,8.96
2022-08-07T03:37:53.299Z,8.93
2022-08-07T03:38:49.066Z,8.93
2022-08-07T03:39:59.602Z,8.93
2022-08-07T03:40:57.162Z,8.98
2022-08-07T03:41:50.925Z,8.90
2022-08-07T03:42:49.347Z,8.87
2022-08-07T03:43:57.477Z,8.91
2022-08-07T03:44:53.510Z,8.85
2022-08-07T03:45:48.988Z,8.88
2022-08-07T03:47:11.323Z,8.84
2022-08-07T03:47:51.569Z,8.85
2022-08-07T03:49:02.772Z,8.88
2022-08-07T03:49:52.453Z,8.81
2022-08-07T03:50:52.008Z,8.85
2022-08-07T03:52:00.945Z,8.81
2022-08-07T03:52:49.931Z,8.80
2022-08-07T03:54:05.932Z,8.85
2022-08-07T03:54:54.259Z,8.88
2022-08-07T03:55:57.724Z,8.88
2022-08-07T03:57:07.031Z,8.82
2022-08-07T03:58:57.108Z,8.78
2022-08-07T03:59:09.019Z,8.80
2022-08-07T04:00:01.594Z,8.80
2022-08-07T04:00:54.019Z,8.69
2022-08-07T04:01:48.923Z,8.84
2022-08-07T04:02:49.334Z,8.90
2022-08-07T04:03:53.486Z,8.80
2022-08-07T04:04:48.848Z,8.84
2022-08-07T04:05:47.821Z,8.91
2022-08-07T04:06:50.927Z,8.84
2022-08-07T04:07:48.535Z,8.87
2022-08-07T04:08:47.792Z,8.85
2022-08-07T04:09:50.284Z,8.95
2022-08-07T04:10:54.666Z,8.84
2022-08-07T04:12:26.286Z,8.87
2022-08-07T04:12:48.794Z,8.85
2022-08-07T04:14:14.052Z,8.84
2022-08-07T04:14:49.119Z,8.90
2022-08-07T04:15:49.100Z,8.96
2022-08-07T04:16:58.134Z,9.02
2022-08-07T04:18:56.671Z,8.98
2022-08-07T04:18:59.356Z,8.96
2022-08-07T04:19:52.877Z,9.02
2022-08-07T04:20:54.578Z,9.18
2022-08-07T04:21:59.295Z,9.47
2022-08-07T04:22:53.748Z,9.52
2022-08-07T04:24:03.506Z,9.64
2022-08-07T04:24:48.678Z,9.69
2022-08-07T04:25:47.660Z,9.76
2022-08-07T04:26:48.655Z,9.73
2022-08-07T04:27:59.167Z,9.80
2022-08-07T04:28:48.626Z,9.93
2022-08-07T04:29:58.967Z,10.09
2022-08-07T04:30:55.447Z,10.20
2022-08-07T04:32:03.374Z,10.54
2022-08-07T04:32:48.637Z,10.67
2022-08-07T04:33:56.470Z,10.93
2022-08-07T04:34:48.577Z,11.14
2022-08-07T04:35:50.451Z,11.32
2022-08-07T04:36:48.751Z,11.43
2022-08-07T04:38:02.820Z,11.79
2022-08-07T04:38:48.546Z,12.03
2022-08-07T04:39:49.799Z,12.03
2022-08-07T04:40:52.816Z,12.03
2022-08-07T04:41:48.542Z,12.22
2022-08-07T04:42:52.440Z,12.30
2022-08-07T04:44:12.743Z,12.68
2022-08-07T04:44:54.604Z,12.76
2022-08-07T04:46:00.749Z,12.78
2022-08-07T04:47:04.947Z,12.71
2022-08-07T04:48:01.373Z,12.75
2022-08-07T04:48:50.955Z,12.71
2022-08-07T04:49:58.066Z,12.87
2022-08-07T04:50:52.182Z,13.05
2022-08-07T04:51:47.434Z,13.11
2022-08-07T04:52:52.240Z,13.27
2022-08-07T04:54:05.826Z,13.33
2022-08-07T04:54:50.580Z,13.52
2022-08-07T04:58:07.420Z,13.64
2022-08-07T04:58:15.327Z,13.80
2022-08-07T04:58:24.119Z,13.70
2022-08-07T04:59:17.807Z,13.55
2022-08-07T05:00:11.510Z,13.50
2022-08-07T05:00:48.476Z,13.41
2022-08-07T05:01:47.359Z,13.27
2022-08-07T05:02:47.673Z,13.30
2022-08-07T05:04:07.400Z,13.29
2022-08-07T05:04:50.396Z,13.29
2022-08-07T05:05:53.497Z,13.39
2022-08-07T05:06:51.769Z,13.39
2022-08-07T05:07:48.610Z,13.50
2022-08-07T05:09:01.424Z,13.70
2022-08-07T05:09:48.285Z,13.96
2022-08-07T05:10:47.286Z,14.26
2022-08-07T05:11:57.048Z,14.48
2022-08-07T05:12:53.725Z,14.44
2022-08-07T05:14:54.447Z,14.23
2022-08-07T05:14:59.016Z,14.25
2022-08-07T05:15:48.231Z,14.43
2022-08-07T05:16:52.672Z,14.48
2022-08-07T05:17:51.494Z,14.51
2022-08-07T05:18:48.210Z,14.59
2022-08-07T05:19:47.215Z,14.74
2022-08-07T05:20:47.196Z,14.96
2022-08-07T05:21:59.900Z,14.96
2022-08-07T05:22:48.229Z,15.00
2022-08-07T05:23:47.168Z,15.04
2022-08-07T05:24:47.165Z,15.25
2022-08-07T05:26:11.169Z,15.50
2022-08-07T05:26:48.143Z,15.55
2022-08-07T05:28:16.768Z,15.64
2022-08-07T05:28:50.224Z,15.75
2022-08-07T05:29:51.117Z,16.02
2022-08-07T05:30:48.122Z,16.15
2022-08-07T05:31:51.258Z,16.32
2022-08-07T05:32:48.126Z,16.26
2022-08-07T05:33:51.207Z,16.24
2022-08-07T05:34:48.069Z,16.46
2022-08-07T05:35:47.885Z,16.10
2022-08-07T05:36:49.197Z,16.16
2022-08-07T05:37:48.087Z,16.50
2022-08-07T05:39:00.728Z,16.34
2022-08-07T05:40:06.462Z,16.13
2022-08-07T05:40:51.502Z,16.56
2022-08-07T05:42:02.323Z,16.72
2022-08-07T05:42:55.763Z,16.65
2022-08-07T05:44:08.710Z,16.82
2022-08-07T05:45:04.408Z,16.83
2022-08-07T05:45:48.462Z,16.90
2022-08-07T05:46:46.976Z,16.80
2022-08-07T05:48:01.312Z,16.68
2022-08-07T05:48:58.293Z,16.35
2022-08-07T05:49:47.951Z,16.69
2022-08-07T05:50:46.946Z,16.96
2022-08-07T05:51:47.099Z,17.59
2022-08-07T05:52:46.940Z,17.89
2022-08-07T05:54:12.564Z,17.83
2022-08-07T05:54:56.087Z,18.16
2022-08-07T05:56:02.053Z,18.26
2022-08-07T05:56:47.895Z,18.35
2022-08-07T05:57:46.882Z,18.77
2022-08-07T05:58:52.594Z,19.18
2022-08-07T05:59:55.888Z,19.18
2022-08-07T06:00:50.977Z,18.75
2022-08-07T06:01:46.871Z,18.67
2022-08-07T06:02:46.958Z,18.15
2022-08-07T06:03:53.967Z,18.35
2022-08-07T06:04:47.830Z,18.80
2022-08-07T06:05:48.904Z,19.07
2022-08-07T06:06:47.910Z,18.55
2022-08-07T06:08:29.647Z,18.59
2022-08-07T06:08:47.815Z,18.77
2022-08-07T06:10:05.730Z,19.04
2022-08-07T06:10:52.102Z,18.86
2022-08-07T06:11:47.765Z,19.15
2022-08-07T06:12:46.845Z,18.93
2022-08-07T06:14:11.645Z,18.77
2022-08-07T06:14:49.403Z,19.16
2022-08-07T06:15:46.739Z,19.76
2022-08-07T06:16:50.663Z,20.39
2022-08-07T06:17:53.795Z,20.55
2022-08-07T06:18:51.779Z,20.67
2022-08-07T06:20:03.444Z,20.41
2022-08-07T06:20:49.696Z,20.26
2022-08-07T06:22:16.310Z,20.43
2022-08-07T06:23:01.748Z,20.31
2022-08-07T06:24:37.582Z,20.47
2022-08-07T06:24:53.482Z,20.80
2022-08-07T06:25:54.814Z,21.22
2022-08-07T06:26:47.631Z,21.32
2022-08-07T06:28:01.053Z,21.48
2022-08-07T06:28:47.650Z,21.69
2022-08-07T06:29:47.616Z,22.05
2022-08-07T06:30:50.848Z,21.48
2022-08-07T06:31:50.383Z,21.14
2022-08-07T06:32:46.765Z,21.30
2022-08-07T06:33:46.619Z,21.51
2022-08-07T06:34:46.580Z,21.61
2022-08-07T06:36:06.250Z,21.57
2022-08-07T06:36:47.559Z,21.63
2022-08-07T06:37:46.765Z,21.57
2022-08-07T06:38:58.616Z,21.61
2022-08-07T06:40:17.163Z,21.74
2022-08-07T06:40:47.597Z,21.96
2022-08-07T06:42:00.787Z,22.13
2022-08-07T06:42:47.509Z,22.53
2022-08-07T06:44:01.553Z,22.69
2022-08-07T06:44:51.282Z,22.65
2022-08-07T06:45:46.486Z,22.25
2022-08-07T06:46:53.809Z,22.38
2022-08-07T06:47:48.251Z,22.65
2022-08-07T06:48:47.528Z,23.06
2022-08-07T06:49:51.599Z,23.02
2022-08-07T06:50:47.647Z,23.84
2022-08-07T06:51:50.148Z,24.23
2022-08-07T06:52:46.465Z,24.45
2022-08-07T06:55:27.692Z,24.92
2022-08-07T06:55:32.304Z,25.10
2022-08-07T06:56:01.283Z,24.81
2022-08-07T06:56:49.446Z,24.25
2022-08-07T06:57:48.341Z,24.13
2022-08-07T07:00:11.648Z,23.92
2022-08-07T07:00:13.863Z,23.95
2022-08-07T07:00:47.368Z,24.10
2022-08-07T07:01:50.691Z,23.53
2022-08-07T07:02:53.321Z,23.05
2022-08-07T07:03:50.241Z,22.56
2022-08-07T07:04:55.224Z,21.98
2022-08-07T07:06:05.735Z,22.38
2022-08-07T07:07:00.588Z,23.25
2022-08-07T07:07:59.164Z,23.22
2022-08-07T07:08:47.296Z,23.20
2022-08-07T07:09:47.297Z,23.17
2022-08-07T07:10:47.634Z,22.84
2022-08-07T07:12:09.167Z,23.28
2022-08-07T07:12:48.686Z,22.95
2022-08-07T07:13:57.482Z,23.07
2022-08-07T07:14:47.249Z,23.21
2022-08-07T07:15:50.620Z,23.61
2022-08-07T07:16:50.851Z,23.58
2022-08-07T07:17:50.360Z,23.89
2022-08-07T07:18:48.040Z,23.95
2022-08-07T07:19:57.661Z,24.54
2022-08-07T07:20:47.202Z,24.51
2022-08-07T07:22:11.441Z,24.11
2022-08-07T07:24:06.491Z,23.98
2022-08-07T07:24:10.844Z,24.48
2022-08-07T07:24:57.061Z,25.44
2022-08-07T07:26:32.783Z,25.28
2022-08-07T07:26:49.720Z,24.93
2022-08-07T07:27:55.567Z,24.69
2022-08-07T07:29:28.474Z,24.60
2022-08-07T07:30:07.603Z,24.25
2022-08-07T07:30:47.118Z,23.89
2022-08-07T07:31:46.780Z,24.00
2022-08-07T07:32:46.106Z,24.55
2022-08-07T07:33:54.886Z,24.73
2022-08-07T07:34:48.590Z,25.44
2022-08-07T07:36:04.920Z,25.75
2022-08-07T07:36:48.031Z,25.92
2022-08-07T07:37:56.165Z,25.33
2022-08-07T07:38:48.089Z,25.67
2022-08-07T07:39:54.994Z,25.10
2022-08-07T07:40:47.038Z,24.92
2022-08-07T07:41:50.868Z,25.35
2022-08-07T07:42:51.096Z,24.96
2022-08-07T07:43:47.990Z,25.45
2022-08-07T07:44:49.364Z,25.87
2022-08-07T07:46:53.503Z,25.20
2022-08-07T07:46:54.173Z,24.91
2022-08-07T07:47:52.677Z,25.03
2022-08-07T07:48:47.011Z,25.38
2022-08-07T07:50:33.818Z,25.84
2022-08-07T07:50:46.961Z,26.06
2022-08-07T07:51:58.258Z,26.22
2022-08-07T07:52:47.354Z,26.71
2022-08-07T07:53:52.000Z,27.17
2022-08-07T07:54:50.628Z,27.45
2022-08-07T07:55:54.972Z,26.92
2022-08-07T07:56:46.918Z,26.86
2022-08-07T07:57:53.226Z,26.12
2022-08-07T07:58:46.934Z,26.35
2022-08-07T07:59:52.720Z,26.75
2022-08-07T08:00:53.567Z,27.02
2022-08-07T08:02:02.469Z,27.51
2022-08-07T08:03:04.621Z,27.99
2022-08-07T08:04:09.551Z,28.41
2022-08-07T08:04:46.927Z,27.99
2022-08-07T08:05:55.329Z,27.51
2022-08-07T08:06:51.973Z,27.67
2022-08-07T08:07:59.665Z,27.17
2022-08-07T08:08:48.281Z,26.70
2022-08-07T08:09:52.546Z,26.33
2022-08-07T08:10:46.805Z,26.86
2022-08-07T08:11:59.731Z,27.15
2022-08-07T08:12:58.968Z,27.37
2022-08-07T08:13:54.130Z,27.58
2022-08-07T08:14:46.773Z,27.70
2022-08-07T08:15:58.712Z,28.16
2022-08-07T08:16:50.336Z,28.72
2022-08-07T08:17:57.709Z,29.25
2022-08-07T08:18:50.506Z,29.31
2022-08-07T08:20:17.644Z,29.31
2022-08-07T08:20:47.973Z,27.51
2022-08-07T08:22:02.719Z,27.37
2022-08-07T08:22:55.899Z,27.74
2022-08-07T08:23:46.745Z,27.92
2022-08-07T08:24:46.589Z,27.93
2022-08-07T08:25:49.348Z,27.99
2022-08-07T08:26:50.297Z,28.53
2022-08-07T08:27:56.617Z,28.17
2022-08-07T08:28:46.698Z,28.14
2022-08-07T08:29:54.491Z,28.57
2022-08-07T08:30:51.353Z,28.29
2022-08-07T08:31:58.777Z,28.49
2022-08-07T08:32:49.156Z,29.17
2022-08-07T08:33:50.215Z,28.97
2022-08-07T08:34:46.670Z,28.75
2022-08-07T08:35:49.703Z,28.86
2022-08-07T08:36:46.609Z,27.95
2022-08-07T08:38:00.789Z,27.86
2022-08-07T08:38:46.625Z,28.56
2022-08-07T08:39:54.618Z,28.60
2022-08-07T08:40:47.027Z,27.19
2022-08-07T08:41:58.398Z,27.27
2022-08-07T08:42:46.687Z,27.70
2022-08-07T08:43:56.170Z,28.42
2022-08-07T08:44:46.556Z,29.23
2022-08-07T08:45:58.983Z,29.94
2022-08-07T08:46:46.532Z,30.03
2022-08-07T08:47:52.261Z,30.20
2022-08-07T08:48:46.558Z,30.18
2022-08-07T08:49:46.877Z,29.38
2022-08-07T08:50:46.504Z,28.48
2022-08-07T08:52:13.215Z,28.29
2022-08-07T08:52:53.743Z,28.61
2022-08-07T08:53:46.483Z,28.14
2022-08-07T08:54:46.212Z,28.01
2022-08-07T08:55:54.560Z,28.22
2022-08-07T08:56:47.512Z,28.16
2022-08-07T08:57:45.452Z,28.95
2022-08-07T08:58:45.446Z,29.10
2022-08-07T08:59:48.504Z,29.79
2022-08-07T09:00:48.353Z,30.27
2022-08-07T09:01:49.071Z,30.70
2022-08-07T09:02:49.450Z,30.52
2022-08-07T09:03:48.041Z,30.20
2022-08-07T09:04:45.438Z,29.91
2022-08-07T09:05:45.390Z,29.85
2022-08-07T09:06:47.675Z,29.97
2022-08-07T09:07:46.297Z,28.98
2022-08-07T09:08:46.819Z,28.44
2022-08-07T09:09:47.581Z,29.02
2022-08-07T09:10:45.362Z,29.76
2022-08-07T09:11:53.556Z,30.31
2022-08-07T09:12:53.716Z,30.28
2022-08-07T09:13:46.330Z,29.95
2022-08-07T09:14:50.634Z,29.36
2022-08-07T09:16:23.678Z,29.42
2022-08-07T09:16:46.307Z,29.78
2022-08-07T09:17:59.061Z,29.79
2022-08-07T09:18:52.943Z,29.51
2022-08-07T09:19:53.623Z,29.58
2022-08-07T09:20:57.711Z,28.51
2022-08-07T09:22:09.813Z,27.80
2022-08-07T09:24:35.041Z,27.27
2022-08-07T09:24:55.109Z,26.45
2022-08-07T09:24:58.976Z,26.45
2022-08-07T09:25:54.449Z,27.09
2022-08-07T09:26:47.775Z,28.02
2022-08-07T09:28:00.515Z,28.42
2022-08-07T09:30:05.755Z,29.39
2022-08-07T09:30:06.561Z,29.35
2022-08-07T09:30:47.086Z,29.05
2022-08-07T09:31:48.444Z,28.57
2022-08-07T09:32:45.197Z,28.69
2022-08-07T09:33:57.059Z,28.73
2022-08-07T09:34:53.895Z,29.26
2022-08-07T09:36:00.900Z,29.85
2022-08-07T09:36:46.935Z,30.29
2022-08-07T09:37:54.065Z,30.69
2022-08-07T09:38:50.241Z,31.12
2022-08-07T09:39:53.739Z,31.02
2022-08-07T09:40:46.139Z,29.88
2022-08-07T09:42:03.199Z,29.36
2022-08-07T09:42:46.153Z,28.71
2022-08-07T09:44:06.223Z,28.07
2022-08-07T09:45:03.558Z,28.56
2022-08-07T09:47:42.329Z,29.85
2022-08-07T09:47:42.585Z,28.86
2022-08-07T09:48:02.446Z,30.18
2022-08-07T09:49:59.714Z,30.60
2022-08-07T09:50:01.197Z,30.60
2022-08-07T09:50:46.059Z,30.72
2022-08-07T09:52:15.901Z,30.25
2022-08-07T09:52:51.620Z,30.29
2022-08-07T09:53:47.996Z,30.70
2022-08-07T09:54:46.089Z,29.85
2022-08-07T09:56:02.831Z,29.57
2022-08-07T09:56:46.426Z,29.53
2022-08-07T09:57:46.688Z,29.28
2022-08-07T09:58:48.853Z,29.79
2022-08-07T10:00:00.867Z,30.60
2022-08-07T10:00:47.023Z,30.37
2022-08-07T10:01:51.301Z,30.57
2022-08-07T10:02:55.804Z,30.25
2022-08-07T10:04:06.799Z,30.14
2022-08-07T10:04:53.137Z,30.80
2022-08-07T10:05:59.875Z,31.53
2022-08-07T10:06:49.245Z,31.41
2022-08-07T10:07:52.755Z,31.59
2022-08-07T10:08:45.949Z,31.73
2022-08-07T10:10:00.620Z,32.40
2022-08-07T10:11:17.159Z,33.16
2022-08-07T10:12:00.319Z,33.68
2022-08-07T10:12:52.904Z,33.54
2022-08-07T10:14:00.200Z,32.27
2022-08-07T10:14:54.147Z,31.22
2022-08-07T10:15:45.966Z,29.69
2022-08-07T10:16:45.135Z,29.25
2022-08-07T10:18:01.494Z,29.01
2022-08-07T10:18:45.892Z,28.94
2022-08-07T10:19:45.501Z,28.63
2022-08-07T10:20:44.878Z,29.07
2022-08-07T10:22:14.698Z,29.75
2022-08-07T10:22:45.850Z,30.06
2022-08-07T10:24:06.658Z,30.81
2022-08-07T10:24:45.840Z,30.39
2022-08-07T10:25:44.854Z,30.43
2022-08-07T10:26:53.067Z,30.22
2022-08-07T10:27:47.306Z,30.69
2022-08-07T10:28:49.637Z,30.56
2022-08-07T10:29:45.826Z,30.31
2022-08-07T10:30:44.794Z,31.11
2022-08-07T10:31:45.258Z,31.56
2022-08-07T10:32:52.773Z,32.23
2022-08-07T10:34:06.243Z,32.77
2022-08-07T10:34:45.796Z,33.23
2022-08-07T10:35:56.562Z,33.33
2022-08-07T10:36:45.748Z,32.52
2022-08-07T10:38:00.540Z,32.37
2022-08-07T10:38:48.682Z,32.18
2022-08-07T10:40:02.813Z,30.75
2022-08-07T10:40:45.751Z,29.36
2022-08-07T10:41:52.272Z,29.35
2022-08-07T10:42:45.709Z,29.04
2022-08-07T10:43:44.736Z,30.18
2022-08-07T10:44:45.473Z,31.40
2022-08-07T10:45:57.795Z,31.93
2022-08-07T10:46:45.684Z,32.09
2022-08-07T10:47:53.671Z,31.36
2022-08-07T10:48:45.669Z,31.89
2022-08-07T10:49:49.031Z,32.40
2022-08-07T10:50:50.176Z,32.52
2022-08-07T10:52:02.412Z,32.40
2022-08-07T10:52:51.166Z,33.02
2022-08-07T10:53:45.648Z,33.04
2022-08-07T10:54:55.210Z,32.55
2022-08-07T10:55:45.649Z,31.80
2022-08-07T10:56:44.620Z,31.68
2022-08-07T10:57:44.605Z,32.08
2022-08-07T10:58:46.157Z,32.33
2022-08-07T10:59:47.489Z,33.14
2022-08-07T11:00:50.605Z,32.87
2022-08-07T11:01:51.491Z,33.33
2022-08-07T11:02:49.108Z,33.61
2022-08-07T11:03:55.193Z,33.36
2022-08-07T11:04:46.141Z,32.52
2022-08-07T11:05:50.914Z,32.13
2022-08-07T11:06:45.542Z,32.45
2022-08-07T11:07:58.342Z,32.56
2022-08-07T11:08:45.528Z,32.24
2022-08-07T11:10:09.158Z,32.64
2022-08-07T11:10:49.978Z,32.75
2022-08-07T11:11:45.519Z,32.71
2022-08-07T11:12:45.514Z,32.74
2022-08-07T11:14:43.878Z,32.43
2022-08-07T11:15:00.288Z,32.01
2022-08-07T11:15:54.395Z,32.33
2022-08-07T11:16:49.417Z,32.08
2022-08-07T11:17:46.814Z,31.46
2022-08-07T11:18:44.464Z,29.87
2022-08-07T11:19:45.461Z,29.07
2022-08-07T11:20:44.482Z,28.94
2022-08-07T11:21:44.461Z,28.58
2022-08-07T11:22:46.389Z,27.93
2022-08-07T11:23:45.590Z,28.04
2022-08-07T11:24:45.339Z,28.78
2022-08-07T11:25:49.712Z,29.33
2022-08-07T11:26:49.837Z,28.95
2022-08-07T11:28:01.472Z,29.25
2022-08-07T11:28:55.117Z,28.97
2022-08-07T11:29:47.360Z,28.34
2022-08-07T11:30:45.409Z,28.16
2022-08-07T11:31:45.124Z,28.24
2022-08-07T11:32:44.361Z,28.97
2022-08-07T11:33:53.961Z,29.51
2022-08-07T11:34:45.354Z,30.56
2022-08-07T11:35:59.783Z,30.25
2022-08-07T11:36:45.343Z,29.76
2022-08-07T11:37:58.271Z,30.06
2022-08-07T11:38:50.548Z,31.03
2022-08-07T11:40:00.437Z,31.59
2022-08-07T11:40:49.922Z,31.56
2022-08-07T11:42:02.394Z,31.46
2022-08-07T11:42:45.305Z,31.33
2022-08-07T11:44:11.083Z,31.36
2022-08-07T11:44:52.783Z,31.19
2022-08-07T11:45:53.069Z,31.51
2022-08-07T11:46:45.272Z,31.38
2022-08-07T11:47:56.575Z,30.24
2022-08-07T11:49:27.605Z,30.45
2022-08-07T11:50:18.678Z,31.37
2022-08-07T11:50:57.185Z,31.44
2022-08-07T11:51:46.843Z,31.91
2022-08-07T11:52:44.241Z,32.28
2022-08-07T11:54:00.931Z,32.11
2022-08-07T11:54:46.488Z,31.78
2022-08-07T11:56:09.337Z,31.38
2022-08-07T11:56:45.197Z,31.36
2022-08-07T11:57:59.619Z,31.86
2022-08-07T11:58:45.772Z,32.23
2022-08-07T12:00:10.681Z,32.00
2022-08-07T12:00:53.610Z,31.44
2022-08-07T12:01:59.115Z,30.85
2022-08-07T12:02:52.048Z,31.14
2022-08-07T12:03:46.345Z,30.88
2022-08-07T12:04:44.144Z,30.05
2022-08-07T12:05:48.858Z,30.18
2022-08-07T12:06:56.214Z,30.69
2022-08-07T12:07:45.350Z,31.37
2022-08-07T12:08:45.531Z,31.74
2022-08-07T12:09:46.095Z,31.77
2022-08-07T12:10:44.126Z,31.44
2022-08-07T12:12:10.192Z,31.59
2022-08-07T12:12:45.081Z,31.77
2022-08-07T12:13:47.749Z,31.29
2022-08-07T12:14:45.073Z,31.09
2022-08-07T12:16:05.766Z,31.40
2022-08-07T12:16:45.056Z,32.08
2022-08-07T12:17:59.573Z,32.40
2022-08-07T12:18:45.661Z,32.15
2022-08-07T12:19:56.465Z,32.05
2022-08-07T12:20:45.060Z,32.08
2022-08-07T12:22:35.741Z,31.97
2022-08-07T12:22:47.355Z,31.41
2022-08-07T12:24:05.561Z,29.92
2022-08-07T12:24:44.998Z,29.33
2022-08-07T12:26:22.201Z,29.13
2022-08-07T12:26:48.987Z,29.85
2022-08-07T12:28:09.819Z,29.94
2022-08-07T12:28:49.626Z,29.23
2022-08-07T12:29:44.969Z,29.05
2022-08-07T12:30:46.693Z,28.45
2022-08-07T12:31:53.054Z,28.78
2022-08-07T12:32:44.948Z,29.11
2022-08-07T12:33:56.580Z,29.70
2022-08-07T12:34:49.140Z,29.95
2022-08-07T12:35:48.215Z,29.57
2022-08-07T12:36:49.570Z,28.72
2022-08-07T12:38:10.758Z,28.61
2022-08-07T12:38:47.329Z,29.50
2022-08-07T12:39:50.963Z,30.37
2022-08-07T12:40:47.072Z,31.07
2022-08-07T12:41:49.804Z,31.36
2022-08-07T12:42:54.780Z,31.40
2022-08-07T12:44:01.994Z,30.96
2022-08-07T12:44:45.136Z,30.25
2022-08-07T12:45:43.896Z,29.66
2022-08-07T12:46:46.222Z,29.35
2022-08-07T12:47:44.035Z,29.92
2022-08-07T12:48:53.076Z,29.76
2022-08-07T12:49:51.614Z,28.93
2022-08-07T12:50:49.039Z,28.54
2022-08-07T12:51:50.902Z,28.41
2022-08-07T12:52:46.139Z,28.42
2022-08-07T12:54:23.856Z,29.11
2022-08-07T12:54:54.897Z,29.21
2022-08-07T12:56:02.958Z,29.95
2022-08-07T12:56:51.466Z,29.54
2022-08-07T12:58:01.220Z,30.00
2022-08-07T12:58:46.809Z,29.57